CheckWX is a tool to help pilots better visualize weather data.  It is not intended as a substitute for an official pre-flight weather briefing.

12:55:25 UTC

KHIB TAF
Range Regional Airport
Hibbing, Minnesota, USA
KHIB 201130Z 2012/2112 VRB02KT P6SM SCT250

May-20@
12:00 UTC

May-20 @ 12:00 UTC

May-21@
12:00 UTC

May-21 @ 12:00 UTC

KHIB 201130Z 2012/2112 VRB02KT P6SM SCT250
Wind
  • Variable at 2 KTS
Cloud Levels
  • Scattered at 25,000' AGL